Time;durP1;ratioP1;P1;durP2;ratioP2;P2;SDS_P1;SDS_P2;PMS_P1;PMS_P2;Temp;Humidity;BMP_temperature;BMP_pressure;BME280_temperature;BME280_humidity;BME280_pressure;Samples;Min_cycle;Max_cycle;Signal;HPM_P1;HPM_P2
2022/05/27 00:02:02;;;;;;;2.67;1.77;;;17.20;99.90;;;;;;5048644;22;20592;-70
2022/05/27 00:04:28;;;;;;;2.03;1.37;;;17.10;99.90;;;;;;5019243;28;20192;-69
2022/05/27 00:06:54;;;;;;;2.50;1.63;;;17.10;99.90;;;;;;5020567;28;20415;-67
2022/05/27 00:09:21;;;;;;;3.27;1.50;;;17.20;99.90;;;;;;5009254;28;20411;-71
2022/05/27 00:11:47;;;;;;;2.70;1.63;;;17.10;99.90;;;;;;5018816;28;20203;-74
2022/05/27 00:14:12;;;;;;;2.77;1.47;;;17.10;99.90;;;;;;5005614;28;20417;-70
2022/05/27 00:16:38;;;;;;;2.30;1.53;;;17.10;99.90;;;;;;5004378;28;20239;-70
2022/05/27 00:19:04;;;;;;;1.70;1.37;;;17.10;99.90;;;;;;5016158;28;20603;-70
2022/05/27 00:21:29;;;;;;;2.47;1.40;;;17.00;99.90;;;;;;5022155;28;20206;-71
2022/05/27 00:23:55;;;;;;;4.17;1.77;;;17.00;99.90;;;;;;5004640;28;20176;-74
2022/05/27 00:26:21;;;;;;;3.47;1.50;;;17.00;99.90;;;;;;5006160;28;20230;-70
2022/05/27 00:28:46;;;;;;;2.30;1.20;;;16.90;99.90;;;;;;5005483;28;20222;-71
2022/05/27 00:31:12;;;;;;;5.10;1.70;;;16.90;99.90;;;;;;5005194;28;20209;-70
2022/05/27 00:33:38;;;;;;;1.73;1.63;;;16.80;99.90;;;;;;5012213;28;20193;-71
2022/05/27 00:36:10;;;;;;;1.73;1.53;;;16.80;99.90;;;;;;5025291;28;20578;-70
2022/05/27 00:38:36;;;;;;;1.70;1.37;;;16.80;99.90;;;;;;5005754;28;20473;-70
2022/05/27 00:41:03;;;;;;;3.00;1.47;;;16.70;99.90;;;;;;5004003;28;20450;-72
2022/05/27 00:43:29;;;;;;;1.80;1.47;;;16.70;99.90;;;;;;5004733;28;20510;-71
2022/05/27 00:46:11;;;;;;;3.87;1.80;;;16.70;99.90;;;;;;5004463;28;20457;-71
2022/05/27 00:48:39;;;;;;;4.20;1.43;;;16.60;99.90;;;;;;5004929;28;20412;-70
2022/05/27 00:51:12;;;;;;;2.47;1.37;;;16.60;99.90;;;;;;5004166;28;20975;-71
2022/05/27 00:53:47;;;;;;;2.87;1.80;;;16.60;99.90;;;;;;5005685;28;20428;-70
2022/05/27 00:56:15;;;;;;;2.33;1.70;;;16.60;99.90;;;;;;5004630;28;20828;-71
2022/05/27 00:58:49;;;;;;;2.00;1.77;;;16.50;99.90;;;;;;5004413;28;20428;-70
2022/05/27 01:01:15;;;;;;;1.73;1.50;;;16.60;99.90;;;;;;5011476;28;20539;-71
2022/05/27 01:03:43;;;;;;;1.40;1.30;;;16.60;99.90;;;;;;5020142;28;20975;-70
2022/05/27 01:06:08;;;;;;;2.80;1.30;;;16.60;99.90;;;;;;5006397;28;20419;-72
2022/05/27 01:08:34;;;;;;;2.17;1.70;;;16.60;99.90;;;;;;5019634;28;20419;-71
2022/05/27 01:11:38;;;;;;;1.40;1.30;;;16.60;99.90;;;;;;5024482;28;20215;-70
2022/05/27 01:14:32;;;;;;;1.43;1.33;;;16.60;99.90;;;;;;4974141;28;20213;-71
2022/05/27 01:17:12;;;;;;;2.33;1.60;;;16.60;99.90;;;;;;5024509;28;20911;-70
2022/05/27 01:23:04;;;;;;;3.10;1.60;;;16.60;99.90;;;;;;5017989;28;20510;-71
2022/05/27 01:25:51;;;;;;;2.17;1.97;;;16.60;99.90;;;;;;5004050;28;20422;-70
2022/05/27 01:28:46;;;;;;;4.23;1.80;;;16.50;99.90;;;;;;5005480;28;20475;-71
2022/05/27 01:31:33;;;;;;;2.23;1.50;;;16.40;99.90;;;;;;5004262;28;20449;-71
2022/05/27 01:34:08;;;;;;;2.03;1.60;;;16.40;99.90;;;;;;5011889;28;20429;-70
2022/05/27 01:36:48;;;;;;;2.50;1.70;;;16.30;99.90;;;;;;5014434;28;20463;-70
2022/05/27 01:39:34;;;;;;;1.90;1.63;;;16.20;99.90;;;;;;5005080;28;20502;-71
2022/05/27 01:42:12;;;;;;;2.23;1.50;;;16.30;99.90;;;;;;5003939;28;20450;-70
2022/05/27 01:44:50;;;;;;;1.53;1.43;;;16.30;99.90;;;;;;5004813;28;20413;-69
2022/05/27 01:47:36;;;;;;;2.63;1.23;;;16.30;99.90;;;;;;5004207;28;20421;-73
2022/05/27 01:50:28;;;;;;;1.67;1.40;;;16.30;99.90;;;;;;5004409;28;20428;-71
2022/05/27 01:53:10;;;;;;;2.47;1.40;;;16.30;99.90;;;;;;5004645;28;20483;-70
2022/05/27 01:55:40;;;;;;;1.97;1.60;;;16.30;99.90;;;;;;5018976;28;20448;-73
2022/05/27 01:58:29;;;;;;;1.97;1.63;;;16.30;99.90;;;;;;5024474;28;20430;-71
2022/05/27 02:00:55;;;;;;;2.50;1.67;;;16.30;99.90;;;;;;5024181;28;20448;-70
2022/05/27 02:03:45;;;;;;;1.33;1.23;;;16.30;99.90;;;;;;5017990;28;20424;-71
2022/05/27 02:06:34;;;;;;;1.67;1.57;;;16.30;99.90;;;;;;5006129;28;20626;-70
2022/05/27 02:09:10;;;;;;;1.97;1.67;;;16.30;99.90;;;;;;4992235;28;20439;-70
2022/05/27 02:11:38;;;;;;;2.17;1.87;;;16.30;99.90;;;;;;5023743;28;20435;-73
2022/05/27 02:14:14;;;;;;;4.53;2.00;;;16.30;99.90;;;;;;5024198;28;20432;-70
2022/05/27 02:17:09;;;;;;;1.80;1.13;;;16.30;99.90;;;;;;5023816;28;20536;-70
2022/05/27 02:19:44;;;;;;;1.97;1.77;;;16.20;99.90;;;;;;4973517;28;20429;-71
2022/05/27 02:22:13;;;;;;;2.23;1.60;;;16.20;99.90;;;;;;5004157;28;20455;-71
2022/05/27 02:24:58;;;;;;;3.30;2.00;;;16.20;99.90;;;;;;5004069;28;20414;-70
2022/05/27 02:27:31;;;;;;;2.03;1.73;;;16.10;99.90;;;;;;5016838;28;20423;-73
2022/05/27 02:30:01;;;;;;;1.73;1.47;;;16.10;99.90;;;;;;5023695;28;20419;-71
2022/05/27 02:32:47;;;;;;;2.77;2.00;;;16.10;99.90;;;;;;5004436;28;21431;-70
2022/05/27 02:35:22;;;;;;;3.23;2.13;;;15.90;99.90;;;;;;5003710;28;20466;-73
2022/05/27 02:37:50;;;;;;;2.10;1.90;;;15.80;99.90;;;;;;5004174;28;20460;-72
2022/05/27 02:40:35;;;;;;;2.50;2.00;;;15.70;99.90;;;;;;5003888;28;20437;-71
2022/05/27 02:43:28;;;;;;;2.20;1.60;;;15.70;99.90;;;;;;5004457;28;20436;-72
2022/05/27 02:46:08;;;;;;;2.30;1.57;;;15.60;99.90;;;;;;5003868;28;20414;-71
2022/05/27 02:48:50;;;;;;;2.67;2.00;;;15.60;99.90;;;;;;5003954;28;20397;-70
2022/05/27 02:51:39;;;;;;;1.97;1.77;;;15.70;99.90;;;;;;5003656;28;20526;-72
2022/05/27 02:54:23;;;;;;;2.67;1.70;;;15.60;99.90;;;;;;4967097;28;20429;-70
2022/05/27 02:56:58;;;;;;;3.77;2.13;;;15.50;99.90;;;;;;5018012;28;20505;-69
2022/05/27 02:59:25;;;;;;;1.67;1.57;;;15.60;99.90;;;;;;5006307;28;20902;-71
2022/05/27 03:01:50;;;;;;;2.20;1.80;;;15.60;99.90;;;;;;5019947;28;20463;-69
2022/05/27 03:04:18;;;;;;;3.10;2.13;;;15.60;99.90;;;;;;5023387;28;20914;-70
2022/05/27 03:07:28;;;;;;;2.60;1.77;;;15.70;99.90;;;;;;5006691;28;20555;-71
2022/05/27 03:10:07;;;;;;;3.33;2.00;;;15.80;99.90;;;;;;4966887;28;20473;-71
2022/05/27 03:12:50;;;;;;;2.63;1.50;;;15.90;99.90;;;;;;5011377;28;20447;-70
2022/05/27 03:15:34;;;;;;;1.77;1.67;;;16.00;99.90;;;;;;5021901;28;20426;-70
2022/05/27 03:18:12;;;;;;;2.27;1.70;;;16.00;99.90;;;;;;5005682;28;20451;-70
2022/05/27 03:21:06;;;;;;;3.00;1.97;;;16.00;99.90;;;;;;5018296;28;20803;-70
2022/05/27 03:23:53;;;;;;;2.33;2.00;;;16.10;99.90;;;;;;5003894;28;20835;-70
2022/05/27 03:26:25;;;;;;;3.03;2.57;;;16.20;99.90;;;;;;5003786;28;20417;-69
2022/05/27 03:29:15;;;;;;;1.77;1.67;;;16.30;99.90;;;;;;5006755;28;20432;-70
2022/05/27 03:32:04;;;;;;;3.07;1.90;;;16.50;99.90;;;;;;5003962;28;20518;-71
2022/05/27 03:34:50;;;;;;;2.37;2.17;;;16.40;99.90;;;;;;5004004;28;20408;-71
2022/05/27 03:37:34;;;;;;;2.70;1.93;;;16.30;99.90;;;;;;5017847;28;20448;-72
2022/05/27 03:40:20;;;;;;;3.23;2.43;;;16.50;99.90;;;;;;5012535;28;20554;-71
2022/05/27 03:42:46;;;;;;;2.23;1.93;;;16.60;99.90;;;;;;5004591;28;20441;-70
2022/05/27 03:45:15;;;;;;;2.37;2.00;;;16.70;99.90;;;;;;5003669;28;20432;-71
2022/05/27 03:47:44;;;;;;;1.67;1.57;;;16.70;99.90;;;;;;5007274;28;20428;-71
2022/05/27 03:50:15;;;;;;;2.63;1.90;;;16.70;99.90;;;;;;5009400;28;20487;-71
2022/05/27 03:52:44;;;;;;;2.13;1.50;;;16.70;99.90;;;;;;5011661;28;20459;-71
2022/05/27 03:55:12;;;;;;;1.83;1.73;;;16.80;99.90;;;;;;5011596;28;20418;-70
2022/05/27 03:57:38;;;;;;;3.73;2.43;;;16.90;99.90;;;;;;5006829;28;20548;-72
2022/05/27 04:00:06;;;;;;;2.13;1.93;;;16.90;99.90;;;;;;5009231;28;20514;-72
2022/05/27 04:02:31;;;;;;;2.63;2.03;;;16.90;99.90;;;;;;5022386;28;20225;-71
2022/05/27 04:04:57;;;;;;;2.53;2.17;;;16.60;99.90;;;;;;5019277;28;20507;-70
2022/05/27 04:07:22;;;;;;;2.60;1.67;;;16.70;99.90;;;;;;5019005;28;20183;-71
2022/05/27 04:09:48;;;;;;;3.73;1.97;;;16.80;99.90;;;;;;5007239;28;20186;-70
2022/05/27 04:12:14;;;;;;;2.97;1.90;;;16.90;99.90;;;;;;5007453;28;20294;-73
2022/05/27 04:14:39;;;;;;;4.43;1.70;;;16.90;99.90;;;;;;5007471;28;20234;-70
2022/05/27 04:19:49;;;;;;;4.90;2.13;;;16.80;99.90;;;;;;5009815;28;20228;-73
2022/05/27 04:22:15;;;;;;;3.23;2.00;;;16.70;99.90;;;;;;5024077;28;20478;-74
2022/05/27 04:24:41;;;;;;;3.17;2.00;;;16.90;99.90;;;;;;5027086;28;21293;-71
2022/05/27 04:27:12;;;;;;;4.83;2.23;;;16.80;99.90;;;;;;5022012;28;20860;-72
2022/05/27 04:29:47;;;;;;;1.97;1.80;;;16.80;99.90;;;;;;5023084;28;20410;-70
2022/05/27 04:32:13;;;;;;;2.43;2.20;;;16.90;99.90;;;;;;5025004;28;20449;-72
2022/05/27 04:34:40;;;;;;;2.93;2.03;;;16.90;99.90;;;;;;5019774;28;20491;-72
2022/05/27 04:37:07;;;;;;;5.20;2.20;;;17.00;99.90;;;;;;5016909;28;20469;-70
2022/05/27 04:39:33;;;;;;;5.73;2.50;;;17.00;99.90;;;;;;5020582;28;20528;-70
2022/05/27 04:41:58;;;;;;;2.20;2.00;;;17.10;99.90;;;;;;5020591;28;21086;-68
2022/05/27 04:44:24;;;;;;;2.73;1.90;;;17.10;99.90;;;;;;5015852;28;20412;-72
2022/05/27 04:46:50;;;;;;;5.00;2.50;;;17.10;99.90;;;;;;5020145;28;20182;-70
2022/05/27 04:52:00;;;;;;;2.77;2.20;;;17.10;99.90;;;;;;5017206;28;20708;-71
2022/05/27 04:54:27;;;;;;;3.00;2.30;;;17.20;99.90;;;;;;5027330;28;20421;-70
2022/05/27 04:56:54;;;;;;;2.63;2.43;;;17.00;99.90;;;;;;5013037;28;20555;-70
2022/05/27 04:59:20;;;;;;;2.70;2.50;;;17.00;99.90;;;;;;5007173;28;20453;-70
2022/05/27 05:01:45;;;;;;;3.37;2.73;;;17.00;99.90;;;;;;5007389;28;20478;-71
2022/05/27 05:04:11;;;;;;;4.03;2.73;;;17.00;99.90;;;;;;5007229;28;20179;-71
2022/05/27 05:06:37;;;;;;;3.57;2.50;;;17.00;99.90;;;;;;5006092;28;20265;-70
2022/05/27 05:09:02;;;;;;;2.63;2.27;;;16.90;99.90;;;;;;5005617;28;20794;-70
2022/05/27 05:11:28;;;;;;;2.57;2.33;;;16.90;99.90;;;;;;5020609;28;20207;-71
2022/05/27 05:13:54;;;;;;;4.23;2.50;;;17.00;99.90;;;;;;5012335;28;20190;-70
2022/05/27 05:16:19;;;;;;;4.10;2.60;;;17.20;99.90;;;;;;5014952;28;20202;-69
2022/05/27 05:18:45;;;;;;;2.73;2.53;;;17.40;99.90;;;;;;5021685;28;20232;-70
2022/05/27 05:21:10;;;;;;;2.70;2.50;;;17.60;99.90;;;;;;5024881;28;20195;-70
2022/05/27 05:23:36;;;;;;;4.20;2.30;;;17.70;99.90;;;;;;5011933;28;20182;-71
2022/05/27 05:26:01;;;;;;;3.80;2.10;;;17.70;99.90;;;;;;5005324;28;20186;-72
2022/05/27 05:28:27;;;;;;;2.47;1.90;;;17.80;99.90;;;;;;5005583;28;20709;-71
2022/05/27 05:30:53;;;;;;;2.20;2.00;;;17.60;99.90;;;;;;5015675;28;20201;-71
2022/05/27 05:33:18;;;;;;;3.03;2.40;;;17.70;99.90;;;;;;5011063;28;20182;-70
2022/05/27 05:35:44;;;;;;;2.30;2.10;;;17.70;99.90;;;;;;5024538;28;20256;-71
2022/05/27 05:38:09;;;;;;;2.37;2.00;;;17.80;99.90;;;;;;5025075;28;20173;-72
2022/05/27 05:40:36;;;;;;;2.60;2.13;;;17.80;99.90;;;;;;5012118;28;20205;-69
2022/05/27 05:43:01;;;;;;;2.27;2.07;;;17.90;99.90;;;;;;5021100;28;20556;-70
2022/05/27 05:45:28;;;;;;;6.77;2.30;;;17.70;99.90;;;;;;5005657;28;20412;-71
2022/05/27 05:47:53;;;;;;;3.30;2.40;;;17.70;99.90;;;;;;5005474;28;20177;-71
2022/05/27 05:50:19;;;;;;;3.97;2.50;;;17.80;99.90;;;;;;5005033;28;20477;-71
2022/05/27 05:52:46;;;;;;;3.97;2.60;;;17.60;99.90;;;;;;5012169;28;20241;-71
2022/05/27 05:55:14;;;;;;;3.03;2.63;;;17.50;99.90;;;;;;5004908;28;20918;-70
2022/05/27 05:57:41;;;;;;;2.90;2.23;;;17.70;99.90;;;;;;5019576;28;20465;-70
2022/05/27 06:00:10;;;;;;;3.30;2.50;;;17.70;99.90;;;;;;5018327;28;20924;-71
2022/05/27 06:02:35;;;;;;;2.77;2.30;;;17.70;99.90;;;;;;5018210;28;20499;-71
2022/05/27 06:05:03;;;;;;;4.17;2.60;;;17.70;99.90;;;;;;5005071;28;20789;-70
2022/05/27 06:07:30;;;;;;;2.63;2.40;;;17.90;99.90;;;;;;5006410;28;20177;-71
2022/05/27 06:09:56;;;;;;;3.60;2.53;;;17.90;99.90;;;;;;5005041;28;20425;-72
2022/05/27 06:12:23;;;;;;;3.27;2.20;;;18.00;99.90;;;;;;5014444;28;20441;-71
2022/05/27 06:14:50;;;;;;;4.57;2.30;;;18.20;99.90;;;;;;5023959;28;20198;-72
2022/05/27 06:17:16;;;;;;;2.60;2.10;;;17.80;99.90;;;;;;5015389;28;20454;-71
2022/05/27 06:19:41;;;;;;;2.80;2.30;;;18.00;99.90;;;;;;5014449;28;20940;-70
2022/05/27 06:22:07;;;;;;;6.43;3.00;;;17.90;99.90;;;;;;5022199;28;20205;-70
2022/05/27 06:24:33;;;;;;;2.90;2.20;;;17.80;99.90;;;;;;5005186;28;20179;-70
2022/05/27 06:26:59;;;;;;;2.90;2.30;;;17.90;99.90;;;;;;5014790;28;20205;-71
2022/05/27 06:34:53;;;;;;;4.03;2.90;;;18.00;99.90;;;;;;5010356;28;20480;-71
2022/05/27 06:37:21;;;;;;;3.20;2.70;;;18.10;99.90;;;;;;5006981;28;20458;-70
2022/05/27 06:39:48;;;;;;;2.97;2.70;;;18.20;99.90;;;;;;5006856;28;20181;-70
2022/05/27 06:42:14;;;;;;;2.90;2.60;;;18.20;99.90;;;;;;5006225;28;20507;-70
2022/05/27 06:44:40;;;;;;;2.67;2.47;;;18.30;99.90;;;;;;5022025;28;20463;-72
2022/05/27 06:47:06;;;;;;;5.33;2.83;;;18.40;99.90;;;;;;5011335;28;20413;-69
2022/05/27 06:49:32;;;;;;;4.10;2.53;;;18.20;99.90;;;;;;5016441;28;20213;-71
2022/05/27 06:51:58;;;;;;;3.33;2.43;;;18.10;99.90;;;;;;5016987;28;20605;-70
2022/05/27 06:54:24;;;;;;;3.47;2.70;;;18.10;99.90;;;;;;5018399;28;20470;-71
2022/05/27 06:56:52;;;;;;;4.10;2.93;;;18.00;99.90;;;;;;5023728;28;20453;-70
2022/05/27 06:59:20;;;;;;;3.57;2.50;;;18.10;99.90;;;;;;5021150;28;20221;-70
2022/05/27 07:01:46;;;;;;;5.40;2.80;;;18.20;99.90;;;;;;5033951;22;20542;-75
2022/05/27 07:04:12;;;;;;;3.30;2.97;;;18.00;99.90;;;;;;5004510;28;20414;-72
2022/05/27 07:06:43;;;;;;;5.73;3.40;;;17.70;99.90;;;;;;5004655;28;20413;-72
2022/05/27 07:09:15;;;;;;;3.10;2.80;;;17.50;99.90;;;;;;5004768;28;20181;-75
2022/05/27 07:11:42;;;;;;;3.90;2.67;;;17.50;99.90;;;;;;5004182;28;20465;-74
2022/05/27 07:14:08;;;;;;;4.50;2.50;;;17.50;99.90;;;;;;5003722;28;20465;-72
2022/05/27 07:16:34;;;;;;;5.07;3.27;;;17.60;99.90;;;;;;5003365;28;20519;-71
2022/05/27 07:18:59;;;;;;;3.60;2.23;;;17.50;99.90;;;;;;5005646;28;20910;-73
2022/05/27 07:21:25;;;;;;;5.50;3.10;;;17.40;99.90;;;;;;5008674;28;20204;-75
2022/05/27 07:23:52;;;;;;;5.53;2.53;;;17.20;99.90;;;;;;5008408;28;20185;-71
2022/05/27 07:26:18;;;;;;;3.07;2.53;;;17.40;99.90;;;;;;5008613;28;20180;-72
2022/05/27 07:28:44;;;;;;;2.63;2.37;;;17.50;99.90;;;;;;5008762;28;20784;-73
2022/05/27 07:31:09;;;;;;;3.17;2.80;;;17.50;99.90;;;;;;5009013;28;20202;-71
2022/05/27 07:33:35;;;;;;;3.37;2.90;;;17.40;99.90;;;;;;5006584;28;20191;-73
2022/05/27 07:36:01;;;;;;;3.40;2.63;;;17.40;99.90;;;;;;5008199;28;20632;-79
2022/05/27 07:38:26;;;;;;;2.83;2.63;;;17.40;99.90;;;;;;5006608;28;20269;-74
2022/05/27 07:40:52;;;;;;;4.37;2.93;;;17.60;99.90;;;;;;5007608;28;20206;-72
2022/05/27 07:43:19;;;;;;;3.93;2.30;;;17.50;99.90;;;;;;5007724;28;20180;-70
2022/05/27 07:45:45;;;;;;;3.20;2.90;;;17.50;99.90;;;;;;5007406;28;20840;-73
2022/05/27 07:48:12;;;;;;;6.87;3.10;;;17.70;99.90;;;;;;5007675;28;20497;-75
2022/05/27 07:50:38;;;;;;;2.53;2.33;;;18.00;99.90;;;;;;5005846;28;20480;-71
2022/05/27 07:53:04;;;;;;;4.60;2.57;;;18.30;99.90;;;;;;5007229;28;20597;-70
2022/05/27 07:55:30;;;;;;;4.57;2.90;;;18.30;99.90;;;;;;5005818;28;20480;-71
2022/05/27 07:57:59;;;;;;;3.47;2.43;;;18.30;99.90;;;;;;5007000;28;20928;-71
2022/05/27 08:00:30;;;;;;;4.37;2.60;;;18.00;99.90;;;;;;5006351;28;20820;-74
2022/05/27 08:02:56;;;;;;;7.60;3.00;;;17.90;99.90;;;;;;5006441;28;20416;-73
2022/05/27 08:05:26;;;;;;;4.50;3.23;;;17.80;99.90;;;;;;5006979;28;20406;-74
2022/05/27 08:07:54;;;;;;;2.90;2.53;;;17.90;99.90;;;;;;5007068;28;20425;-70
2022/05/27 08:10:23;;;;;;;3.40;2.33;;;18.10;99.90;;;;;;5005881;28;20971;-73
2022/05/27 08:12:49;;;;;;;5.70;2.87;;;18.40;99.90;;;;;;5006799;28;20934;-71
2022/05/27 08:15:16;;;;;;;2.60;2.27;;;18.50;99.90;;;;;;5005584;28;20799;-70
2022/05/27 08:17:42;;;;;;;3.50;2.77;;;18.40;99.90;;;;;;5006568;28;20454;-73
2022/05/27 08:20:10;;;;;;;3.07;2.37;;;18.20;99.90;;;;;;5005274;28;20943;-75
2022/05/27 08:22:36;;;;;;;3.80;2.93;;;18.50;99.90;;;;;;5006879;28;20468;-75
2022/05/27 08:25:03;;;;;;;5.00;3.07;;;18.60;99.90;;;;;;5007134;28;20926;-71
2022/05/27 08:27:29;;;;;;;4.47;2.43;;;18.80;99.90;;;;;;5006674;28;20267;-75
2022/05/27 08:29:55;;;;;;;4.40;2.60;;;18.90;99.90;;;;;;5005699;28;20510;-75
2022/05/27 08:32:20;;;;;;;3.47;3.00;;;18.90;99.90;;;;;;5006268;28;20211;-71
2022/05/27 08:40:48;;;;;;;2.80;2.50;;;18.60;99.90;;;;;;5006839;28;20641;-74
2022/05/27 08:43:36;;;;;;;2.83;2.50;;;18.30;99.90;;;;;;5006192;28;20422;-75
2022/05/27 08:46:10;;;;;;;2.70;2.47;;;18.40;99.90;;;;;;5006727;28;20934;-72
2022/05/27 08:48:39;;;;;;;3.10;2.27;;;18.70;99.90;;;;;;5006499;28;20403;-73
2022/05/27 08:51:24;;;;;;;3.87;2.70;;;18.60;99.90;;;;;;5003965;28;20442;-73
2022/05/27 08:53:55;;;;;;;4.30;2.90;;;18.60;99.90;;;;;;5006631;28;20777;-74
2022/05/27 08:59:36;;;;;;;3.30;2.93;;;18.60;99.90;;;;;;5006440;28;20461;-75
2022/05/27 09:02:30;;;;;;;2.83;2.40;;;18.60;99.90;;;;;;5003995;28;20470;-74
2022/05/27 09:05:20;;;;;;;3.20;2.50;;;18.40;99.90;;;;;;5006120;28;20783;-76
2022/05/27 09:08:00;;;;;;;2.40;2.20;;;18.30;99.90;;;;;;5005785;28;21411;-74
2022/05/27 09:10:44;;;;;;;2.83;2.20;;;18.40;99.90;;;;;;5005345;28;20446;-76
2022/05/27 09:13:35;;;;;;;2.77;2.30;;;18.60;99.90;;;;;;5006037;28;20419;-73
2022/05/27 09:16:10;;;;;;;3.80;2.43;;;18.60;99.90;;;;;;5006183;28;21259;-74
2022/05/27 09:18:42;;;;;;;2.97;2.17;;;18.70;99.90;;;;;;5005843;28;20453;-74
2022/05/27 09:21:16;;;;;;;5.60;2.67;;;18.60;99.90;;;;;;5005800;28;20438;-75
2022/05/27 09:23:49;;;;;;;2.60;2.40;;;18.70;99.90;;;;;;5005812;28;20409;-72
2022/05/27 09:26:33;;;;;;;3.53;2.80;;;18.80;99.90;;;;;;5005286;28;20946;-74
2022/05/27 09:29:30;;;;;;;3.20;2.70;;;19.00;99.90;;;;;;5005678;28;20411;-75
2022/05/27 09:32:17;;;;;;;8.53;5.53;;;19.30;99.90;;;;;;5005208;28;20549;-73
2022/05/27 09:34:44;;;;;;;7.03;3.60;;;19.40;99.90;;;;;;5005970;28;20443;-72
2022/05/27 09:37:19;;;;;;;2.90;2.70;;;19.70;99.90;;;;;;5005645;28;20830;-69
2022/05/27 09:39:45;;;;;;;2.23;1.93;;;19.70;99.90;;;;;;5005993;28;20403;-72
2022/05/27 09:42:38;;;;;;;2.03;1.80;;;19.90;99.90;;;;;;5004264;28;20457;-72
2022/05/27 09:45:04;;;;;;;2.27;1.93;;;19.70;99.90;;;;;;5005898;28;20167;-74
2022/05/27 09:47:34;;;;;;;2.97;2.10;;;19.70;99.90;;;;;;5005378;28;20923;-74
2022/05/27 09:50:03;;;;;;;2.77;1.90;;;19.80;99.90;;;;;;5004123;28;20433;-73
2022/05/27 09:52:33;;;;;;;2.17;1.90;;;19.90;99.90;;;;;;5005241;28;20518;-71
2022/05/27 09:55:13;;;;;;;2.30;2.10;;;20.00;99.90;;;;;;5004388;28;20438;-70
2022/05/27 09:58:04;;;;;;;4.60;2.40;;;19.80;99.90;;;;;;5005228;28;20457;-71
2022/05/27 10:00:35;;;;;;;3.00;2.07;;;19.80;99.90;;;;;;5004806;28;20997;-70
2022/05/27 10:03:20;;;;;;;2.70;1.90;;;19.60;99.90;;;;;;5004672;28;20410;-73
2022/05/27 10:06:04;;;;;;;1.80;1.70;;;19.50;99.90;;;;;;5005845;28;20441;-72
2022/05/27 10:08:46;;;;;;;2.13;1.93;;;19.40;99.90;;;;;;5005726;28;20942;-72
2022/05/27 10:11:14;;;;;;;2.67;2.10;;;19.40;99.90;;;;;;5004269;28;20810;-70
2022/05/27 10:13:41;;;;;;;1.40;1.30;;;19.70;99.90;;;;;;5005275;28;20626;-76
2022/05/27 10:16:26;;;;;;;3.00;2.17;;;20.10;99.90;;;;;;5005338;28;20797;-72
2022/05/27 10:19:13;;;;;;;2.30;2.03;;;20.30;99.90;;;;;;5002910;28;20513;-71
2022/05/27 10:21:59;;;;;;;1.97;1.80;;;20.10;99.90;;;;;;5005242;28;20442;-72
2022/05/27 10:24:26;;;;;;;2.33;1.60;;;20.00;99.90;;;;;;5004892;28;20407;-71
2022/05/27 10:27:01;;;;;;;3.00;1.80;;;20.10;99.90;;;;;;5003187;28;20505;-71
2022/05/27 10:29:27;;;;;;;4.83;1.53;;;20.60;99.70;;;;;;5005079;28;20422;-73
2022/05/27 10:31:56;;;;;;;2.33;1.80;;;21.10;99.00;;;;;;5004994;28;20448;-76
2022/05/27 10:34:45;;;;;;;2.80;1.77;;;21.30;99.20;;;;;;5003062;28;20196;-73
2022/05/27 10:37:21;;;;;;;2.33;1.90;;;21.30;98.70;;;;;;5004251;28;20549;-72
2022/05/27 10:39:57;;;;;;;3.27;2.07;;;21.20;98.80;;;;;;5004792;28;20425;-75
2022/05/27 10:42:35;;;;;;;1.83;1.67;;;21.50;98.40;;;;;;5004291;28;20449;-74
2022/05/27 10:45:16;;;;;;;2.63;2.17;;;21.80;98.80;;;;;;5004535;28;20410;-74
2022/05/27 10:48:06;;;;;;;1.93;1.63;;;22.30;97.50;;;;;;5004604;28;20416;-73
2022/05/27 10:50:43;;;;;;;2.47;1.93;;;22.20;97.10;;;;;;5005112;28;20426;-74
2022/05/27 10:53:28;;;;;;;2.47;1.50;;;22.20;96.30;;;;;;5004490;28;20422;-74
2022/05/27 10:56:15;;;;;;;2.80;2.13;;;22.00;96.60;;;;;;5002843;28;20441;-76
2022/05/27 11:02:45;;;;;;;2.80;1.70;;;21.70;95.90;;;;;;4994623;28;20557;-74
2022/05/27 11:05:48;;;;;;;3.00;1.50;;;21.50;96.00;;;;;;4994698;28;21108;-73
2022/05/27 11:08:27;;;;;;;1.30;1.20;;;21.30;96.50;;;;;;5004583;28;20635;-77
2022/05/27 11:11:15;;;;;;;3.50;1.43;;;21.30;96.90;;;;;;5004503;28;20450;-76
2022/05/27 11:17:21;;;;;;;1.63;1.53;;;21.10;97.00;;;;;;5004503;28;20965;-73
2022/05/27 11:20:11;;;;;;;2.30;1.53;;;21.10;97.30;;;;;;5004703;28;20414;-74
2022/05/27 11:23:11;;;;;;;2.60;2.30;;;20.80;97.40;;;;;;5004345;28;20927;-74
2022/05/27 11:26:01;;;;;;;2.60;1.67;;;21.00;97.30;;;;;;5002928;28;20435;-74
2022/05/27 11:28:48;;;;;;;1.60;1.43;;;21.20;97.00;;;;;;5003282;28;20431;-76
2022/05/27 11:31:40;;;;;;;4.47;1.80;;;21.50;97.20;;;;;;5004647;28;20450;-72
2022/05/27 11:34:17;;;;;;;3.10;1.53;;;21.50;96.70;;;;;;4988684;28;20430;-75
2022/05/27 11:36:57;;;;;;;2.70;1.70;;;21.30;96.80;;;;;;5004355;28;20500;-72
2022/05/27 11:39:31;;;;;;;1.97;1.50;;;21.40;97.60;;;;;;5004505;28;20464;-73
2022/05/27 11:42:21;;;;;;;4.47;1.57;;;21.70;96.40;;;;;;5002442;28;20441;-73
2022/05/27 11:44:59;;;;;;;2.40;1.70;;;21.70;96.30;;;;;;5004270;28;20410;-72
2022/05/27 11:47:43;;;;;;;1.70;1.60;;;21.40;96.40;;;;;;5004205;28;20402;-71
2022/05/27 11:50:48;;;;;;;2.80;1.60;;;21.50;96.90;;;;;;5004347;28;20469;-73
2022/05/27 11:53:26;;;;;;;1.60;1.50;;;21.50;97.00;;;;;;4988560;28;20801;-72
2022/05/27 11:56:13;;;;;;;3.23;1.80;;;21.70;96.70;;;;;;5004431;28;20434;-74
2022/05/27 11:59:05;;;;;;;2.20;1.67;;;21.70;96.80;;;;;;5003878;28;20796;-75
2022/05/27 12:01:42;;;;;;;4.53;1.97;;;21.80;96.70;;;;;;5000572;28;20459;-73
2022/05/27 12:04:22;;;;;;;2.33;1.80;;;21.70;96.60;;;;;;5003810;28;20780;-72
2022/05/27 12:06:58;;;;;;;2.10;1.60;;;21.60;96.90;;;;;;5006518;28;20395;-76
2022/05/27 12:09:38;;;;;;;5.33;2.23;;;21.40;96.90;;;;;;5007542;28;20502;-73
2022/05/27 12:12:11;;;;;;;2.60;1.60;;;21.80;97.50;;;;;;5007825;28;20481;-72
2022/05/27 12:14:44;;;;;;;2.53;2.00;;;22.10;96.90;;;;;;5008089;28;20410;-71
2022/05/27 12:17:21;;;;;;;1.63;1.53;;;22.40;96.50;;;;;;5007388;28;20607;-72
2022/05/27 12:19:59;;;;;;;2.17;1.60;;;22.50;96.30;;;;;;5007399;28;20407;-75
2022/05/27 12:22:31;;;;;;;1.50;1.40;;;22.80;96.00;;;;;;5007674;28;20410;-73
2022/05/27 12:25:19;;;;;;;2.20;1.70;;;22.80;95.70;;;;;;5007067;28;20422;-74
2022/05/27 12:27:46;;;;;;;2.00;1.70;;;22.80;95.80;;;;;;5007415;28;20497;-72
2022/05/27 12:30:15;;;;;;;1.53;1.43;;;22.80;96.50;;;;;;5007249;28;20423;-73
2022/05/27 12:32:44;;;;;;;1.67;1.30;;;22.80;96.30;;;;;;5007641;28;20434;-74
2022/05/27 12:35:31;;;;;;;2.30;1.80;;;23.30;95.40;;;;;;5006876;28;20850;-73
2022/05/27 12:38:22;;;;;;;2.33;1.83;;;23.90;94.30;;;;;;5006712;28;20458;-69
2022/05/27 12:40:53;;;;;;;2.03;1.27;;;24.20;94.00;;;;;;5006687;28;20934;-73
2022/05/27 12:43:34;;;;;;;3.33;1.67;;;24.60;93.30;;;;;;5006490;28;20919;-73
2022/05/27 12:46:02;;;;;;;2.20;1.70;;;25.40;92.90;;;;;;5006692;28;20952;-74
2022/05/27 12:48:41;;;;;;;1.53;1.20;;;26.90;90.00;;;;;;5006404;28;20407;-74
2022/05/27 12:51:16;;;;;;;1.90;1.50;;;27.40;89.00;;;;;;5006351;28;20434;-74
2022/05/27 12:53:56;;;;;;;1.80;1.70;;;26.70;88.60;;;;;;5006568;28;20425;-73
2022/05/27 13:02:15;;;;;;;1.40;1.30;;;23.40;93.50;;;;;;5005192;28;20454;-73
2022/05/27 13:04:57;;;;;;;1.50;1.40;;;23.00;93.70;;;;;;5005949;28;20919;-73
2022/05/27 13:07:35;;;;;;;1.90;1.43;;;22.20;94.60;;;;;;5006129;28;20935;-73
2022/05/27 13:10:16;;;;;;;1.87;1.57;;;22.10;96.00;;;;;;5005846;28;20418;-77
2022/05/27 13:12:45;;;;;;;2.17;1.90;;;22.10;95.80;;;;;;5005335;28;20446;-73
2022/05/27 13:15:34;;;;;;;2.63;2.43;;;22.10;96.10;;;;;;5006138;28;20415;-73
2022/05/27 13:18:29;;;;;;;2.13;1.90;;;22.30;96.30;;;;;;5005284;28;20458;-74
2022/05/27 13:21:04;;;;;;;2.87;1.67;;;22.30;96.10;;;;;;4996503;28;20443;-74
2022/05/27 13:23:31;;;;;;;2.17;1.70;;;22.30;96.00;;;;;;5004521;28;20433;-73
2022/05/27 13:26:15;;;;;;;4.30;1.80;;;22.40;96.70;;;;;;5005491;28;20418;-76
2022/05/27 13:28:53;;;;;;;3.67;1.80;;;22.40;95.90;;;;;;5005732;28;20774;-72
2022/05/27 13:31:22;;;;;;;2.17;1.73;;;22.10;96.00;;;;;;5005662;28;20430;-73
2022/05/27 13:33:53;;;;;;;3.07;2.00;;;22.00;96.20;;;;;;5005597;28;20927;-73
2022/05/27 13:36:22;;;;;;;2.03;1.83;;;21.60;96.50;;;;;;5005095;28;20414;-74
2022/05/27 13:38:57;;;;;;;3.87;2.30;;;21.70;96.50;;;;;;5005529;28;20420;-71
2022/05/27 13:41:25;;;;;;;2.67;1.60;;;21.80;96.40;;;;;;5004978;28;21288;-71
2022/05/27 13:43:53;;;;;;;4.00;1.97;;;22.00;96.40;;;;;;5005432;28;20422;-73
2022/05/27 13:46:25;;;;;;;3.13;1.53;;;22.00;96.70;;;;;;5005436;28;20426;-74
2022/05/27 13:48:57;;;;;;;1.67;1.37;;;22.10;97.20;;;;;;5005257;28;20411;-74
2022/05/27 13:51:25;;;;;;;2.47;1.70;;;22.00;96.50;;;;;;5004664;28;20787;-75
2022/05/27 13:53:52;;;;;;;2.33;1.90;;;22.10;96.70;;;;;;5005370;28;20411;-77
2022/05/27 13:56:34;;;;;;;13.43;2.03;;;22.20;96.50;;;;;;5005239;28;20763;-72
2022/05/27 13:59:03;;;;;;;2.60;1.63;;;22.20;96.60;;;;;;5003900;28;20442;-76